Time;durP1;ratioP1;P1;durP2;ratioP2;P2;SDS_P1;SDS_P2;PMS_P1;PMS_P2;Temp;Humidity;BMP_temperature;BMP_pressure;BME280_temperature;BME280_humidity;BME280_pressure;Samples;Min_cycle;Max_cycle;Signal;HPM_P1;HPM_P2
2022/04/18 00:02:25;;;;;;;6.53;3.85;;;;;;;4.58;48.27;94044.50;5041598;28;20049;-46
2022/04/18 00:04:52;;;;;;;7.72;4.18;;;;;;;4.55;48.66;94042.53;5042104;28;20041;-47
2022/04/18 00:07:19;;;;;;;7.88;3.60;;;;;;;4.60;48.45;94028.59;5015631;28;20053;-49
2022/04/18 00:09:45;;;;;;;8.23;4.27;;;;;;;4.59;48.10;94029.75;5029028;28;20042;-45
2022/04/18 00:12:12;;;;;;;7.43;4.13;;;;;;;4.61;48.72;94035.59;5034209;28;20041;-49
2022/04/18 00:14:39;;;;;;;7.65;3.88;;;;;;;4.58;48.91;94020.03;5033585;28;20045;-46
2022/04/18 00:17:09;;;;;;;6.80;3.80;;;;;;;4.56;49.15;94020.41;5033872;28;20102;-45
2022/04/18 00:19:39;;;;;;;7.55;4.15;;;;;;;4.49;49.36;94025.00;5033409;28;20056;-46
2022/04/18 00:22:06;;;;;;;6.80;3.97;;;;;;;4.48;49.54;94020.72;5032832;28;20050;-50
2022/04/18 00:24:33;;;;;;;6.65;3.67;;;;;;;4.47;49.55;94016.44;5033752;28;20046;-49
2022/04/18 00:27:03;;;;;;;7.32;4.03;;;;;;;4.47;49.58;94027.31;5033919;28;20123;-48
2022/04/18 00:29:30;;;;;;;6.63;3.83;;;;;;;4.51;49.39;94028.91;5033351;28;20076;-49
2022/04/18 00:31:57;;;;;;;7.70;4.10;;;;;;;4.52;49.04;94026.97;5033620;28;20041;-47
2022/04/18 00:34:24;;;;;;;7.23;4.00;;;;;;;4.56;49.24;94022.34;5033196;28;20038;-46
2022/04/18 00:36:50;;;;;;;6.65;3.65;;;;;;;4.50;49.58;94012.97;5033720;28;20052;-48
2022/04/18 00:39:17;;;;;;;7.40;3.67;;;;;;;4.58;49.23;94012.66;5033330;28;20426;-51
2022/04/18 00:41:44;;;;;;;7.07;3.85;;;;;;;4.56;49.16;94025.84;5033872;28;20406;-48
2022/04/18 00:44:10;;;;;;;6.40;4.00;;;;;;;4.53;49.38;94013.00;5029303;28;20061;-45
2022/04/18 00:46:37;;;;;;;16.13;9.33;;;;;;;4.61;49.48;94011.16;5018777;28;20099;-45
2022/04/18 00:49:04;;;;;;;6.68;4.10;;;;;;;4.58;49.04;94001.78;5033462;28;20049;-49
2022/04/18 00:51:31;;;;;;;7.50;3.92;;;;;;;4.54;48.36;93990.09;5032752;28;20053;-46
2022/04/18 00:53:58;;;;;;;7.40;3.97;;;;;;;4.49;48.83;93990.47;5033460;28;20053;-49
2022/04/18 00:56:26;;;;;;;6.95;4.30;;;;;;;4.47;49.08;93994.72;5032794;28;20068;-47
2022/04/18 00:58:54;;;;;;;6.83;4.00;;;;;;;4.49;49.29;93993.19;5033033;28;20038;-51
2022/04/18 01:01:22;;;;;;;7.40;3.80;;;;;;;4.50;48.92;93985.78;5032813;28;20135;-50
2022/04/18 01:03:50;;;;;;;8.00;3.85;;;;;;;4.63;49.05;93983.56;5033331;28;20099;-50
2022/04/18 01:06:18;;;;;;;7.40;4.10;;;;;;;4.62;48.71;93982.78;5023553;28;20068;-44
2022/04/18 01:08:47;;;;;;;6.57;4.07;;;;;;;4.56;49.18;93989.72;5033071;28;20037;-47
2022/04/18 01:11:14;;;;;;;6.20;4.00;;;;;;;4.53;48.84;93977.69;5032984;28;20053;-47
2022/04/18 01:13:43;;;;;;;7.03;3.95;;;;;;;4.54;48.48;93992.03;5031447;28;20502;-46
2022/04/18 01:16:09;;;;;;;6.60;4.30;;;;;;;4.48;49.37;93972.56;5033037;28;20060;-45
2022/04/18 01:18:37;;;;;;;6.30;4.00;;;;;;;4.55;49.63;93974.59;5032445;28;20111;-52
2022/04/18 01:21:08;;;;;;;7.45;4.40;;;;;;;4.51;49.04;93965.63;5032192;28;20132;-48
2022/04/18 01:23:36;;;;;;;6.37;4.03;;;;;;;4.47;49.26;93970.25;5031698;28;20045;-45
2022/04/18 01:28:58;;;;;;;6.72;4.10;;;;;;;4.32;50.38;93963.91;5031666;28;20041;-47
2022/04/18 01:31:35;;;;;;;7.22;4.13;;;;;;;4.35;50.01;93957.72;5030913;28;20103;-47
2022/04/18 01:34:07;;;;;;;6.85;3.95;;;;;;;4.37;50.14;93953.47;5032747;28;20049;-50
2022/04/18 01:36:34;;;;;;;7.90;4.13;;;;;;;4.26;50.01;93946.38;5032146;28;20055;-47
2022/04/18 01:39:01;;;;;;;8.02;4.13;;;;;;;4.34;49.91;93945.28;5032762;28;20050;-49
2022/04/18 01:41:28;;;;;;;7.68;4.13;;;;;;;4.37;49.44;93944.56;5032128;28;20046;-50
2022/04/18 01:43:54;;;;;;;6.57;4.20;;;;;;;4.32;49.80;93945.66;5032334;28;20034;-48
2022/04/18 01:46:21;;;;;;;7.53;4.30;;;;;;;4.32;49.93;93945.66;5031839;28;20050;-47
2022/04/18 01:48:51;;;;;;;7.13;4.17;;;;;;;4.35;49.67;93947.63;5032414;28;20044;-48
2022/04/18 01:51:18;;;;;;;7.18;3.90;;;;;;;4.25;50.12;93945.59;5031858;28;20046;-47
2022/04/18 01:53:46;;;;;;;8.30;4.18;;;;;;;4.18;50.45;93942.81;5032304;28;20109;-45
2022/04/18 01:56:13;;;;;;;7.22;4.40;;;;;;;4.13;50.96;93935.03;5032221;28;20055;-45
2022/04/18 01:58:40;;;;;;;6.80;4.05;;;;;;;4.18;50.79;93937.38;5031693;28;20053;-49
2022/04/18 02:01:07;;;;;;;7.70;4.10;;;;;;;4.12;50.85;93933.44;5032184;28;20075;-45
2022/04/18 02:03:34;;;;;;;7.35;3.92;;;;;;;4.11;51.41;93932.66;5031478;28;20433;-48
2022/04/18 02:06:01;;;;;;;6.10;3.85;;;;;;;4.08;50.97;93930.69;5031918;28;20057;-46
2022/04/18 02:08:27;;;;;;;9.10;4.05;;;;;;;4.04;51.38;93931.81;5031635;28;20048;-46
2022/04/18 02:10:54;;;;;;;11.52;7.30;;;;;;;3.97;51.41;93918.97;5031947;28;20042;-46
2022/04/18 02:13:21;;;;;;;6.60;4.27;;;;;;;4.00;51.60;93926.34;5026455;28;20049;-51
2022/04/18 02:15:48;;;;;;;6.22;4.18;;;;;;;4.12;51.04;93909.78;5012136;28;20056;-51
2022/04/18 02:18:15;;;;;;;7.35;4.22;;;;;;;4.20;50.47;93910.63;5012148;28;20048;-46
2022/04/18 02:20:42;;;;;;;6.07;3.85;;;;;;;4.28;49.84;93914.19;5011014;28;21505;-47
2022/04/18 02:23:08;;;;;;;7.35;3.83;;;;;;;4.20;50.51;93905.19;5012006;28;20038;-49
2022/04/18 02:25:35;;;;;;;6.97;3.97;;;;;;;4.13;50.60;93897.00;5011633;28;20044;-47
2022/04/18 02:28:02;;;;;;;6.47;4.47;;;;;;;4.08;51.42;93905.47;5013327;28;20054;-51
2022/04/18 02:30:29;;;;;;;7.22;4.30;;;;;;;4.01;51.19;93898.06;5030978;28;20085;-47
2022/04/18 02:32:56;;;;;;;8.35;4.07;;;;;;;4.03;51.29;93893.03;5029800;28;20049;-48
2022/04/18 02:35:24;;;;;;;7.55;3.70;;;;;;;4.03;51.09;93903.13;5031296;28;20045;-45
2022/04/18 02:37:52;;;;;;;6.83;4.07;;;;;;;4.11;51.04;93891.16;5031348;28;20052;-45
2022/04/18 02:40:20;;;;;;;6.90;4.15;;;;;;;4.14;50.55;93899.31;5031098;28;20054;-45
2022/04/18 02:42:46;;;;;;;6.78;3.78;;;;;;;3.94;52.14;93889.81;5031525;28;20041;-48
2022/04/18 02:45:18;;;;;;;7.00;4.28;;;;;;;4.02;51.24;93904.25;5030988;28;20041;-49
2022/04/18 02:47:45;;;;;;;6.85;4.22;;;;;;;4.05;51.47;93911.66;5030438;28;20444;-45
2022/04/18 02:50:12;;;;;;;7.87;4.47;;;;;;;3.74;52.74;93905.53;5031561;28;20429;-46
2022/04/18 02:52:39;;;;;;;7.20;3.90;;;;;;;3.83;51.81;93899.81;5030552;28;20053;-47
2022/04/18 02:55:07;;;;;;;5.82;3.60;;;;;;;3.93;51.92;93910.78;5031123;28;20046;-50
2022/04/18 02:57:33;;;;;;;7.03;3.78;;;;;;;3.92;51.18;93897.56;5030463;28;20046;-49
2022/04/18 03:00:00;;;;;;;7.55;4.50;;;;;;;3.87;51.59;93895.97;5031009;28;20054;-49
2022/04/18 03:02:27;;;;;;;6.63;4.23;;;;;;;3.85;51.63;93895.56;5029173;28;20049;-45
2022/04/18 03:04:54;;;;;;;8.70;4.00;;;;;;;3.84;51.52;93896.72;5031069;28;20041;-45
2022/04/18 03:07:20;;;;;;;7.65;4.50;;;;;;;3.75;51.68;93893.53;5029023;28;20053;-47
2022/04/18 03:09:47;;;;;;;7.32;4.10;;;;;;;3.82;52.04;93890.88;5030959;28;20049;-45
2022/04/18 03:12:14;;;;;;;8.52;4.60;;;;;;;3.79;52.26;93886.19;5027465;28;20052;-53
2022/04/18 03:14:41;;;;;;;6.73;4.20;;;;;;;3.82;52.49;93877.31;5016870;28;20041;-48
2022/04/18 03:17:07;;;;;;;35.88;17.20;;;;;;;3.75;52.46;93879.97;5011018;28;20488;-47
2022/04/18 03:19:34;;;;;;;19.13;10.63;;;;;;;3.75;52.42;93888.09;5009009;28;20445;-46
2022/04/18 03:22:01;;;;;;;8.15;4.65;;;;;;;3.68;52.18;93877.97;5011102;28;20045;-53
2022/04/18 03:24:28;;;;;;;6.90;4.03;;;;;;;3.55;52.98;93892.94;5009224;28;20088;-53
2022/04/18 03:26:55;;;;;;;8.30;4.40;;;;;;;3.42;53.75;93889.69;5025909;28;20050;-49
2022/04/18 03:29:22;;;;;;;7.97;4.20;;;;;;;3.45;53.26;93890.88;5023906;28;20049;-49
2022/04/18 03:31:49;;;;;;;5.88;4.03;;;;;;;3.34;53.92;93894.25;5030489;28;20045;-46
2022/04/18 03:34:16;;;;;;;6.72;4.18;;;;;;;3.32;53.58;93893.03;5029384;28;20045;-45
2022/04/18 03:42:13;;;;;;;8.65;4.25;;;;;;;3.12;54.58;93885.09;5030279;28;20057;-47
2022/04/18 03:44:44;;;;;;;6.85;4.10;;;;;;;2.90;55.82;93884.03;5029185;28;20044;-48
2022/04/18 03:47:11;;;;;;;7.07;4.30;;;;;;;2.92;55.66;93887.16;5030582;28;20046;-48
2022/04/18 03:49:39;;;;;;;7.75;4.32;;;;;;;2.92;55.75;93889.09;5029826;28;20064;-47
2022/04/18 03:52:06;;;;;;;6.53;4.10;;;;;;;2.66;56.06;93881.78;5030634;28;20050;-45
2022/04/18 03:54:34;;;;;;;7.05;4.20;;;;;;;2.82;56.02;93881.56;5029875;28;20402;-45
2022/04/18 03:57:02;;;;;;;7.15;4.03;;;;;;;2.76;55.90;93881.13;5030181;28;20041;-46
2022/04/18 03:59:29;;;;;;;7.00;4.35;;;;;;;2.69;56.19;93883.72;5028345;28;20042;-46
2022/04/18 04:01:56;;;;;;;7.38;4.45;;;;;;;2.72;56.40;93888.44;5030082;28;20038;-51
2022/04/18 04:04:23;;;;;;;6.57;4.27;;;;;;;2.80;55.82;93884.66;5029630;28;20114;-46
2022/04/18 04:06:50;;;;;;;7.38;4.45;;;;;;;2.84;55.09;93885.50;5028971;28;20071;-52
2022/04/18 04:09:17;;;;;;;9.15;4.40;;;;;;;2.87;55.37;93882.03;5029905;28;20049;-47
2022/04/18 04:11:43;;;;;;;8.18;4.70;;;;;;;2.91;55.06;93884.81;5028743;28;20060;-48
2022/04/18 04:14:10;;;;;;;6.95;4.28;;;;;;;2.79;55.28;93883.09;5010322;28;20499;-47
2022/04/18 04:16:40;;;;;;;8.43;4.70;;;;;;;2.71;55.55;93892.28;5010096;28;20050;-46
2022/04/18 04:19:07;;;;;;;7.50;4.10;;;;;;;2.80;54.65;93882.72;5010197;28;20068;-49
2022/04/18 04:21:35;;;;;;;9.48;5.07;;;;;;;2.85;55.00;93880.84;5009607;28;20084;-48
2022/04/18 04:24:02;;;;;;;7.78;4.28;;;;;;;2.71;55.55;93887.63;5010515;28;20046;-47
2022/04/18 04:26:29;;;;;;;7.60;4.40;;;;;;;2.27;57.57;93895.50;5009687;28;20046;-50
2022/04/18 04:28:56;;;;;;;7.50;4.60;;;;;;;2.31;57.22;93893.63;5019982;28;20042;-47
2022/04/18 04:31:23;;;;;;;9.98;4.95;;;;;;;2.45;56.64;93890.34;5027966;28;20041;-48
2022/04/18 04:33:50;;;;;;;11.38;6.40;;;;;;;2.56;55.83;93883.19;5030174;28;20045;-49
2022/04/18 04:36:17;;;;;;;8.18;4.47;;;;;;;2.14;57.73;93892.22;5029311;28;20490;-49
2022/04/18 04:38:44;;;;;;;8.27;4.90;;;;;;;2.28;57.50;93889.72;5029862;28;20042;-48
2022/04/18 04:41:11;;;;;;;8.27;4.70;;;;;;;2.43;56.62;93890.72;5030050;28;20054;-52
2022/04/18 04:43:41;;;;;;;8.82;4.50;;;;;;;2.34;56.70;93898.31;5029337;28;20046;-45
2022/04/18 04:46:08;;;;;;;8.38;4.63;;;;;;;2.50;55.85;93887.34;5028494;28;20056;-47
2022/04/18 04:48:35;;;;;;;9.30;4.90;;;;;;;2.79;54.31;93888.50;5029384;28;20067;-45
2022/04/18 04:51:03;;;;;;;6.35;4.50;;;;;;;3.04;54.05;93894.28;5029556;28;20041;-52
2022/04/18 04:53:29;;;;;;;12.60;5.70;;;;;;;3.17;53.04;93887.47;5029336;28;20049;-46
2022/04/18 04:55:56;;;;;;;9.57;5.07;;;;;;;3.27;53.10;93891.44;5030106;28;20045;-46
2022/04/18 04:58:23;;;;;;;9.90;5.63;;;;;;;3.33;53.17;93889.19;5032283;28;20041;-46
2022/04/18 05:00:50;;;;;;;6.85;4.28;;;;;;;3.32;53.03;93893.84;5032264;28;20041;-48
2022/04/18 05:03:16;;;;;;;7.00;4.60;;;;;;;3.36;52.63;93886.53;5033019;28;20099;-45
2022/04/18 05:05:43;;;;;;;8.77;5.17;;;;;;;3.38;52.44;93888.84;5015610;28;20052;-54
2022/04/18 05:08:10;;;;;;;8.25;5.30;;;;;;;3.35;53.13;93893.09;5033054;28;20433;-50
2022/04/18 05:10:37;;;;;;;7.85;4.70;;;;;;;3.43;52.92;93883.09;5032802;28;20049;-46
2022/04/18 05:13:04;;;;;;;9.23;4.22;;;;;;;3.49;52.28;93895.19;5032644;28;20049;-51
2022/04/18 05:15:32;;;;;;;7.22;4.85;;;;;;;3.56;52.28;93892.56;5032583;28;20049;-49
2022/04/18 05:17:59;;;;;;;6.70;4.30;;;;;;;3.62;51.46;93894.94;5031651;28;20033;-49
2022/04/18 05:20:26;;;;;;;8.98;4.80;;;;;;;3.67;51.80;93889.19;5032072;28;20040;-49
2022/04/18 05:22:54;;;;;;;7.07;4.55;;;;;;;3.69;51.77;93898.50;5032994;28;20064;-47
2022/04/18 05:25:22;;;;;;;7.15;4.65;;;;;;;3.58;52.79;93894.88;5032419;28;20051;-49
2022/04/18 05:27:49;;;;;;;8.45;5.00;;;;;;;3.54;52.88;93892.16;5032492;28;20041;-47
2022/04/18 05:30:16;;;;;;;9.43;5.13;;;;;;;3.71;52.25;93892.72;5032801;28;20042;-49
2022/04/18 05:32:45;;;;;;;7.82;4.80;;;;;;;3.76;52.09;93890.44;5031634;28;21575;-51
2022/04/18 05:35:14;;;;;;;6.80;4.40;;;;;;;3.88;51.55;93888.59;5032726;28;20052;-47
2022/04/18 05:37:41;;;;;;;8.25;4.60;;;;;;;3.89;51.15;93887.47;5032270;28;20045;-51
2022/04/18 05:40:09;;;;;;;7.22;4.53;;;;;;;3.99;50.86;93886.78;5032662;28;20450;-53
2022/04/18 05:42:36;;;;;;;7.70;4.47;;;;;;;4.10;51.07;93895.00;5031870;28;20049;-50
2022/04/18 05:45:03;;;;;;;7.63;4.40;;;;;;;4.11;50.24;93899.31;5032528;28;20048;-49
2022/04/18 05:47:30;;;;;;;7.25;4.05;;;;;;;4.27;49.72;93899.84;5032086;28;20057;-49
2022/04/18 05:49:56;;;;;;;8.38;4.75;;;;;;;4.28;50.66;93900.59;5032279;28;20038;-47
2022/04/18 05:52:23;;;;;;;8.05;4.57;;;;;;;4.22;50.13;93900.16;5014223;28;20083;-51
2022/04/18 05:54:50;;;;;;;6.80;4.20;;;;;;;4.37;50.01;93901.84;5032427;28;20057;-48
2022/04/18 05:57:17;;;;;;;6.60;4.03;;;;;;;4.47;49.97;93892.22;5031833;28;20045;-51
2022/04/18 05:59:43;;;;;;;7.13;4.55;;;;;;;4.56;48.87;93884.50;5032208;28;20045;-50
2022/04/18 06:02:10;;;;;;;6.38;4.18;;;;;;;4.66;48.47;93888.47;5018745;28;20061;-48
2022/04/18 06:04:37;;;;;;;20.35;9.85;;;;;;;4.88;49.97;93877.72;5014115;28;20049;-48
2022/04/18 06:07:04;;;;;;;9.10;5.03;;;;;;;4.92;49.09;93873.09;5031944;28;20061;-53
2022/04/18 06:09:31;;;;;;;7.70;4.50;;;;;;;4.90;48.49;93878.13;5030813;28;20056;-53
2022/04/18 06:11:58;;;;;;;7.25;4.13;;;;;;;5.00;48.29;93874.69;5031734;28;20514;-50
2022/04/18 06:14:25;;;;;;;6.70;3.88;;;;;;;5.05;48.05;93870.81;5031502;28;20053;-55
2022/04/18 06:16:51;;;;;;;6.85;4.22;;;;;;;5.00;47.59;93880.91;5030671;28;20379;-46
2022/04/18 06:19:18;;;;;;;7.03;4.13;;;;;;;5.15;46.82;93878.25;5030896;28;20060;-46
2022/04/18 06:21:48;;;;;;;7.05;4.15;;;;;;;5.30;46.72;93879.88;5031801;28;20045;-52
2022/04/18 06:24:16;;;;;;;6.25;4.07;;;;;;;5.51;46.67;93884.59;5014538;28;20045;-52
2022/04/18 06:26:42;;;;;;;6.70;4.30;;;;;;;6.09;45.10;93877.38;5029307;28;20047;-49
2022/04/18 06:29:09;;;;;;;7.57;4.47;;;;;;;8.92;39.71;93891.88;5030331;28;20045;-47
2022/04/18 06:31:36;;;;;;;6.43;4.03;;;;;;;12.85;33.11;93893.19;5030908;28;20041;-51
2022/04/18 06:34:03;;;;;;;5.82;3.92;;;;;;;14.77;28.64;93880.00;5030271;28;20063;-51
2022/04/18 06:36:30;;;;;;;6.20;4.38;;;;;;;14.99;27.07;93882.09;5031045;28;20091;-48
2022/04/18 06:38:57;;;;;;;6.63;3.95;;;;;;;14.82;27.20;93875.13;5031485;28;20040;-51
2022/04/18 06:41:24;;;;;;;5.85;3.78;;;;;;;15.45;28.14;93871.44;5030954;28;20053;-54
2022/04/18 06:43:51;;;;;;;6.30;3.50;;;;;;;17.46;24.79;93880.41;5031220;28;20076;-52
2022/04/18 06:46:17;;;;;;;5.65;3.60;;;;;;;18.96;22.89;93875.69;5030878;28;20049;-53
2022/04/18 06:48:44;;;;;;;4.63;3.42;;;;;;;17.71;23.28;93898.00;5031163;28;20038;-51
2022/04/18 06:51:11;;;;;;;5.60;3.50;;;;;;;16.58;24.78;93878.03;5029821;28;20052;-48
2022/04/18 06:53:38;;;;;;;4.60;3.60;;;;;;;16.44;25.08;93887.66;5030741;28;20045;-47
2022/04/18 06:58:50;;;;;;;5.22;3.88;;;;;;;17.49;23.02;93879.50;5029985;28;20053;-49
2022/04/18 07:01:17;;;;;;;4.57;3.67;;;;;;;18.64;21.98;93877.19;5021181;28;20050;-45
2022/04/18 07:03:44;;;;;;;6.13;3.63;;;;;;;17.15;23.87;93881.28;5023961;28;20043;-48
2022/04/18 07:06:11;;;;;;;7.93;3.95;;;;;;;16.55;24.02;93881.69;5062572;28;20053;-48
2022/04/18 07:08:38;;;;;;;7.80;3.70;;;;;;;14.09;26.17;93873.78;5030385;28;20056;-49
2022/04/18 07:11:05;;;;;;;5.10;3.70;;;;;;;17.67;23.28;93875.97;5029633;28;20076;-47
2022/04/18 07:13:32;;;;;;;4.95;3.50;;;;;;;19.03;21.73;93869.00;5030079;28;20513;-48
2022/04/18 07:16:00;;;;;;;5.00;3.80;;;;;;;16.54;24.04;93864.31;5030630;28;20045;-47
2022/04/18 07:18:27;;;;;;;5.30;3.60;;;;;;;18.58;22.15;93858.84;5030380;28;20039;-49
2022/04/18 07:20:54;;;;;;;6.10;4.23;;;;;;;19.56;20.86;93857.22;5030626;28;20042;-49
2022/04/18 07:23:20;;;;;;;4.65;3.30;;;;;;;21.47;19.29;93856.09;5012848;28;20413;-47
2022/04/18 07:25:47;;;;;;;5.07;3.20;;;;;;;22.74;17.34;93858.44;5029322;28;20038;-55
2022/04/18 07:28:14;;;;;;;4.88;3.20;;;;;;;22.41;17.83;93856.13;5030158;28;20037;-50
2022/04/18 07:30:40;;;;;;;4.72;3.28;;;;;;;19.89;20.25;93844.47;5028626;28;20551;-49
2022/04/18 07:33:07;;;;;;;5.00;3.50;;;;;;;16.12;24.41;93856.41;5030473;28;20037;-52
2022/04/18 07:35:35;;;;;;;5.10;3.42;;;;;;;19.87;20.33;93842.16;5030126;28;20113;-46
2022/04/18 07:40:47;;;;;;;4.60;3.20;;;;;;;22.62;18.12;93859.63;5029708;28;20677;-51
2022/04/18 07:43:13;;;;;;;4.82;3.60;;;;;;;18.52;21.38;93853.16;5030303;28;20048;-53
2022/04/18 07:45:40;;;;;;;5.00;3.40;;;;;;;15.51;24.26;93866.09;5030097;28;20482;-53
2022/04/18 07:48:08;;;;;;;5.20;3.30;;;;;;;19.06;21.38;93854.16;5030722;28;20046;-47
2022/04/18 07:53:20;;;;;;;4.20;2.88;;;;;;;23.73;16.63;93852.44;5029789;28;20510;-47
2022/04/18 07:55:48;;;;;;;6.13;3.70;;;;;;;21.90;18.20;93863.97;5030308;28;20043;-53
2022/04/18 07:58:15;;;;;;;4.50;3.20;;;;;;;20.03;19.43;93854.09;5030291;28;20049;-50
2022/04/18 08:00:42;;;;;;;5.10;3.20;;;;;;;18.40;21.05;93860.44;5029457;28;20482;-50
2022/04/18 08:03:09;;;;;;;4.28;3.40;;;;;;;15.05;25.16;93860.16;5029047;28;20776;-50
2022/04/18 08:05:35;;;;;;;4.15;3.30;;;;;;;18.31;21.34;93854.91;5029572;28;20060;-46
2022/04/18 08:08:02;;;;;;;5.75;3.70;;;;;;;15.75;24.19;93858.97;5030029;28;20041;-50
2022/04/18 08:10:29;;;;;;;4.90;3.60;;;;;;;15.77;23.67;93861.25;5029697;28;20045;-49
2022/04/18 08:12:56;;;;;;;5.75;3.20;;;;;;;19.56;20.42;93857.22;5029944;28;20049;-53
2022/04/18 08:15:23;;;;;;;4.65;3.10;;;;;;;22.20;17.95;93844.22;5029652;28;20053;-50
2022/04/18 08:17:50;;;;;;;4.85;3.33;;;;;;;20.22;19.06;93849.88;5030130;28;20482;-49
2022/04/18 08:20:17;;;;;;;5.25;3.45;;;;;;;19.64;19.25;93859.63;5029857;28;20071;-49
2022/04/18 08:22:43;;;;;;;4.30;3.10;;;;;;;20.98;18.43;93854.88;5028952;28;21823;-48
2022/04/18 08:25:10;;;;;;;4.63;3.25;;;;;;;14.72;24.10;93863.22;5030106;28;20114;-51
2022/04/18 08:27:37;;;;;;;6.55;3.53;;;;;;;16.11;22.70;93860.38;5029319;28;20045;-52
2022/04/18 08:30:04;;;;;;;6.25;3.65;;;;;;;13.90;25.36;93869.97;5030051;28;20665;-52
2022/04/18 08:32:39;;;;;;;5.00;3.78;;;;;;;13.07;27.04;93873.38;5032524;28;20076;-52
2022/04/18 08:35:06;;;;;;;6.00;3.70;;;;;;;13.49;25.84;93873.50;5033736;28;20130;-52
2022/04/18 08:37:34;;;;;;;5.25;3.80;;;;;;;13.68;26.75;93867.06;5031968;28;20072;-50
2022/04/18 08:40:02;;;;;;;5.00;3.40;;;;;;;18.14;21.37;93863.59;5033871;28;20061;-49
2022/04/18 08:42:34;;;;;;;4.50;3.30;;;;;;;16.55;23.20;93862.31;5028703;28;20057;-49
2022/04/18 08:45:04;;;;;;;4.60;3.35;;;;;;;18.13;20.26;93858.53;5022441;28;20042;-48
2022/04/18 08:53:02;;;;;;;4.78;3.40;;;;;;;18.38;20.94;93859.38;5012439;28;20410;-50
2022/04/18 08:55:30;;;;;;;4.90;3.47;;;;;;;15.31;22.92;93869.16;5012955;28;20061;-53
2022/04/18 08:57:57;;;;;;;4.65;3.35;;;;;;;14.36;25.23;93862.28;5013347;28;20042;-53
2022/04/18 09:00:24;;;;;;;5.50;3.53;;;;;;;16.62;22.02;93855.69;5013000;28;20072;-49
2022/04/18 09:02:51;;;;;;;5.43;3.40;;;;;;;19.43;18.88;93845.56;5012188;28;20045;-50
2022/04/18 09:05:18;;;;;;;4.68;3.30;;;;;;;16.43;21.31;93863.19;5012940;28;20048;-48
2022/04/18 09:08:00;;;;;;;6.72;3.20;;;;;;;19.43;19.43;93853.91;5022749;28;20048;-48
2022/04/18 09:10:27;;;;;;;3.95;2.72;;;;;;;19.39;18.50;93850.53;5025009;28;20038;-50
2022/04/18 09:13:12;;;;;;;4.70;3.13;;;;;;;18.09;19.23;93860.66;5032929;28;20074;-50
2022/04/18 09:15:48;;;;;;;5.57;3.40;;;;;;;19.81;18.29;93863.56;5032522;28;20470;-46
2022/04/18 09:18:20;;;;;;;4.03;3.00;;;;;;;17.91;19.80;93858.72;5032932;28;20055;-48
2022/04/18 09:20:52;;;;;;;4.40;3.30;;;;;;;17.14;20.56;93854.81;5031762;28;20041;-46
2022/04/18 09:23:27;;;;;;;4.70;3.22;;;;;;;20.12;18.79;93849.19;5032442;28;20049;-50
2022/04/18 09:26:01;;;;;;;5.27;3.10;;;;;;;19.07;19.27;93852.91;5032919;28;20050;-52
2022/04/18 09:28:33;;;;;;;4.60;2.80;;;;;;;19.97;17.39;93845.63;5030863;28;20494;-46
2022/04/18 09:31:11;;;;;;;3.92;2.55;;;;;;;22.36;15.27;93837.28;5032726;28;20494;-50
2022/04/18 09:33:38;;;;;;;5.30;2.95;;;;;;;21.97;15.74;93843.97;5032374;28;20135;-50
2022/04/18 09:36:19;;;;;;;4.57;2.90;;;;;;;20.02;17.10;93842.19;5032596;28;20072;-51
2022/04/18 09:38:51;;;;;;;4.00;2.97;;;;;;;20.45;17.13;93842.66;5031711;28;20107;-48
2022/04/18 09:41:32;;;;;;;4.72;3.05;;;;;;;22.45;15.44;93835.03;5032316;28;20044;-47
2022/04/18 09:43:59;;;;;;;4.20;2.80;;;;;;;19.98;17.57;93844.38;5031274;28;20075;-49
2022/04/18 09:46:26;;;;;;;3.90;2.90;;;;;;;15.69;20.64;93846.09;5032034;28;20042;-49
2022/04/18 09:49:01;;;;;;;5.03;2.90;;;;;;;16.61;19.59;93848.63;5032372;28;20044;-48
2022/04/18 09:51:37;;;;;;;5.07;2.87;;;;;;;18.88;17.76;93843.91;5031792;28;20054;-50
2022/04/18 09:54:05;;;;;;;5.53;3.20;;;;;;;20.93;16.26;93836.06;5031041;28;20045;-50
2022/04/18 09:56:33;;;;;;;4.63;2.67;;;;;;;21.06;14.90;93833.69;5030412;28;20049;-50
2022/04/18 09:59:01;;;;;;;3.75;2.47;;;;;;;23.92;13.73;93833.94;5032153;28;20041;-50
2022/04/18 10:01:33;;;;;;;3.80;2.70;;;;;;;19.61;16.33;93844.66;5031425;28;20050;-51
2022/04/18 10:04:05;;;;;;;4.27;2.93;;;;;;;21.46;15.81;93835.00;5031984;28;20049;-50
2022/04/18 10:06:32;;;;;;;4.30;3.20;;;;;;;18.58;18.80;93825.50;5031411;28;20079;-47
2022/04/18 10:08:59;;;;;;;4.30;2.95;;;;;;;17.04;19.00;93838.59;5031770;28;20048;-49
2022/04/18 10:11:26;;;;;;;5.47;3.00;;;;;;;23.72;15.31;93829.25;5031445;28;20060;-50
2022/04/18 10:13:53;;;;;;;3.80;2.50;;;;;;;24.52;13.02;93825.38;5021859;28;20050;-52
2022/04/18 10:16:21;;;;;;;4.17;2.53;;;;;;;25.26;12.46;93819.72;5011710;28;20044;-50
2022/04/18 10:18:56;;;;;;;2.97;1.90;;;;;;;24.48;11.78;93821.25;5012003;28;20042;-51
2022/04/18 10:21:29;;;;;;;3.40;2.20;;;;;;;19.73;12.54;93823.41;5011361;28;20052;-49
2022/04/18 10:24:10;;;;;;;4.35;2.60;;;;;;;23.04;12.84;93816.16;5012005;28;20060;-51
2022/04/18 10:27:14;;;;;;;4.07;2.50;;;;;;;26.40;11.92;93823.53;5011411;28;20050;-48
2022/04/18 10:29:45;;;;;;;3.80;2.40;;;;;;;23.98;12.60;93817.09;5027491;28;20049;-49
2022/04/18 10:32:18;;;;;;;5.60;3.05;;;;;;;22.24;14.31;93817.59;5031736;28;20041;-49
2022/04/18 10:34:56;;;;;;;4.97;2.75;;;;;;;20.92;15.63;93815.75;5030362;28;20537;-46
2022/04/18 10:37:24;;;;;;;4.88;3.15;;;;;;;22.31;15.76;93814.34;5030996;28;20053;-46
2022/04/18 10:40:05;;;;;;;4.38;2.80;;;;;;;23.78;13.96;93811.69;5031601;28;20371;-54
2022/04/18 10:42:34;;;;;;;4.20;2.57;;;;;;;25.44;12.86;93796.66;5030804;28;20056;-48
2022/04/18 10:45:08;;;;;;;4.28;2.65;;;;;;;27.08;11.79;93801.25;5031234;28;20049;-49
2022/04/18 10:47:56;;;;;;;4.35;2.72;;;;;;;27.74;11.65;93789.78;5030930;28;20152;-51
2022/04/18 10:50:43;;;;;;;3.55;2.50;;;;;;;22.38;14.36;93795.59;5030621;28;20409;-49
2022/04/18 10:53:22;;;;;;;4.85;2.83;;;;;;;21.36;15.05;93791.72;5031289;28;20067;-47
2022/04/18 10:55:51;;;;;;;4.00;2.67;;;;;;;21.44;14.18;93787.28;5029925;28;20658;-52
2022/04/18 10:58:25;;;;;;;4.03;2.80;;;;;;;18.79;16.76;93790.31;5030233;28;20122;-47
2022/04/18 11:00:54;;;;;;;4.20;2.70;;;;;;;21.91;15.12;93787.25;5031047;28;20041;-49
2022/04/18 11:03:43;;;;;;;4.03;2.63;;;;;;;24.63;13.57;93776.91;5030682;28;20401;-53
2022/04/18 11:06:15;;;;;;;4.43;2.90;;;;;;;24.45;13.26;93778.16;5030953;28;20102;-51
2022/04/18 11:08:57;;;;;;;5.07;2.90;;;;;;;21.87;15.48;93773.53;5028587;28;20548;-48
2022/04/18 11:11:33;;;;;;;4.93;3.40;;;;;;;15.85;21.14;93785.06;5030391;28;20045;-46
2022/04/18 11:14:01;;;;;;;4.53;3.13;;;;;;;16.27;21.47;93790.16;5030756;28;20051;-53
2022/04/18 11:16:28;;;;;;;5.57;3.50;;;;;;;16.08;21.71;93780.28;5030398;28;20037;-51
2022/04/18 11:19:04;;;;;;;5.30;3.40;;;;;;;14.35;23.84;93782.69;5030541;28;20042;-45
2022/04/18 11:22:04;;;;;;;5.20;3.40;;;;;;;15.88;22.58;93769.56;5028995;28;20049;-45
2022/04/18 11:24:54;;;;;;;6.65;3.63;;;;;;;14.92;23.88;93780.06;5029034;28;20049;-46
2022/04/18 11:27:27;;;;;;;5.80;3.20;;;;;;;16.90;21.86;93768.69;5030087;28;20083;-46
2022/04/18 11:29:56;;;;;;;6.78;3.42;;;;;;;16.30;22.11;93767.13;5030543;28;20041;-46
2022/04/18 11:32:28;;;;;;;5.00;3.00;;;;;;;16.14;23.72;93762.59;5029904;28;20049;-47
2022/04/18 11:34:58;;;;;;;5.10;3.23;;;;;;;15.77;23.65;93764.41;5030449;28;20049;-50
2022/04/18 11:37:31;;;;;;;6.00;3.55;;;;;;;14.97;23.53;93776.75;5028741;28;20045;-51
2022/04/18 11:40:00;;;;;;;5.97;3.33;;;;;;;16.01;23.59;93753.63;5030639;28;20049;-54
2022/04/18 11:42:29;;;;;;;5.40;3.40;;;;;;;16.77;22.97;93756.91;5029495;28;20056;-48
2022/04/18 11:44:59;;;;;;;4.80;3.00;;;;;;;17.20;22.07;93748.81;5030284;28;20045;-51
2022/04/18 11:47:35;;;;;;;5.77;3.00;;;;;;;17.40;22.17;93756.66;5029705;28;20042;-52
2022/04/18 11:50:04;;;;;;;4.88;2.63;;;;;;;16.36;22.69;93761.75;5030132;28;20075;-55
2022/04/18 11:52:33;;;;;;;4.53;2.65;;;;;;;15.60;22.19;93760.31;5029902;28;20053;-50
2022/04/18 11:55:06;;;;;;;4.47;2.70;;;;;;;14.62;23.12;93751.84;5030329;28;20051;-53
2022/04/18 11:57:35;;;;;;;5.55;2.78;;;;;;;14.98;23.00;93750.66;5029545;28;20071;-48
2022/04/18 12:00:10;;;;;;;4.67;2.47;;;;;;;15.28;22.25;93751.94;5030152;28;20044;-48
2022/04/18 12:08:12;;;;;;;5.55;2.60;;;;;;;16.05;22.15;93748.72;5034231;28;20072;-54
2022/04/18 12:10:44;;;;;;;4.25;2.58;;;;;;;16.58;21.40;93734.72;5033889;28;20048;-48
2022/04/18 12:13:13;;;;;;;4.50;2.53;;;;;;;16.84;21.94;93734.50;5025406;28;20042;-48